Time;durP1;ratioP1;P1;durP2;ratioP2;P2;SDS_P1;SDS_P2;PMS_P1;PMS_P2;Temp;Humidity;BMP_temperature;BMP_pressure;BME280_temperature;BME280_humidity;BME280_pressure;Samples;Min_cycle;Max_cycle;Signal;HPM_P1;HPM_P2
2023/07/21 00:02:02;;;;;;;6.38;5.82;;;;;;;-144.30;46.35;83560.06;5002285;28;20194;-48
2023/07/21 00:04:30;;;;;;;4.82;4.00;;;;;;;-144.30;46.30;83542.19;5018777;28;20233;-49
2023/07/21 00:06:57;;;;;;;5.80;3.63;;;;;;;-144.30;46.52;83540.19;5022388;28;20639;-49
2023/07/21 00:09:24;;;;;;;9.68;3.80;;;;;;;-144.30;46.09;83538.22;5022089;28;20225;-51
2023/07/21 00:11:50;;;;;;;8.07;6.00;;;;;;;-144.30;46.00;83548.16;5020174;28;20221;-51
2023/07/21 00:14:17;;;;;;;4.38;4.05;;;;;;;-144.30;45.93;83575.97;5021948;28;20193;-50
2023/07/21 00:16:44;;;;;;;6.88;4.85;;;;;;;-144.30;45.52;83591.84;5022040;28;20582;-50
2023/07/21 00:19:12;;;;;;;6.45;5.75;;;;;;;-144.30;45.60;83579.94;5020115;28;20229;-49
2023/07/21 00:21:39;;;;;;;5.85;3.90;;;;;;;-144.30;45.58;83585.91;5021076;28;20189;-51
2023/07/21 00:24:07;;;;;;;6.13;4.30;;;;;;;-144.30;45.68;83597.81;5021428;28;20198;-51
2023/07/21 00:26:35;;;;;;;7.13;4.45;;;;;;;-144.30;45.53;83550.13;5019798;28;20202;-51
2023/07/21 00:29:02;;;;;;;5.13;4.40;;;;;;;-144.30;45.70;83532.25;5020864;28;20197;-51
2023/07/21 00:31:29;;;;;;;7.32;5.63;;;;;;;-144.30;45.58;83591.84;5022038;28;20221;-52
2023/07/21 00:33:56;;;;;;;4.80;4.32;;;;;;;-144.30;45.63;83587.88;5020193;28;20216;-50
2023/07/21 00:36:24;;;;;;;8.20;4.57;;;;;;;-144.30;45.79;83583.91;5020551;28;20201;-50
2023/07/21 00:38:51;;;;;;;5.78;3.95;;;;;;;-144.30;46.13;83577.94;5021286;28;20190;-52
2023/07/21 00:41:20;;;;;;;5.28;4.18;;;;;;;-144.30;46.14;83607.75;5020209;28;20281;-49
2023/07/21 00:43:47;;;;;;;8.27;4.45;;;;;;;-144.30;46.29;83611.72;5021458;28;20256;-50
2023/07/21 00:46:14;;;;;;;4.53;4.13;;;;;;;-144.30;46.41;83581.91;5019684;28;20197;-49
2023/07/21 00:48:41;;;;;;;7.50;4.15;;;;;;;-144.30;46.86;83603.78;5020198;28;20200;-50
2023/07/21 00:51:10;;;;;;;4.85;3.08;;;;;;;-144.30;46.94;83615.69;5021240;28;20214;-52
2023/07/21 00:53:38;;;;;;;3.67;3.33;;;;;;;-144.30;47.03;83679.28;5019783;28;20197;-50
2023/07/21 00:56:06;;;;;;;8.32;3.97;;;;;;;-144.30;47.21;83611.72;5019998;28;20193;-49
2023/07/21 00:58:33;;;;;;;8.00;4.95;;;;;;;-144.30;47.33;83627.63;5021339;28;20201;-52
2023/07/21 01:01:01;;;;;;;8.90;5.18;;;;;;;-144.30;47.71;83583.91;5020317;28;20202;-51
2023/07/21 01:03:29;;;;;;;8.93;4.60;;;;;;;-144.30;47.91;83699.16;5012148;28;20233;-51
2023/07/21 01:05:57;;;;;;;7.55;4.90;;;;;;;-144.30;48.34;83689.22;5001594;28;20629;-51
2023/07/21 01:08:25;;;;;;;4.78;4.40;;;;;;;-144.30;48.32;83715.03;5001494;28;20648;-50
2023/07/21 01:10:53;;;;;;;7.38;4.13;;;;;;;-144.30;48.40;83675.31;4999587;28;20199;-47
2023/07/21 01:13:21;;;;;;;9.25;8.07;;;;;;;-144.30;48.61;83707.09;5001064;28;20197;-48
2023/07/21 01:15:52;;;;;;;7.18;4.35;;;;;;;-144.30;49.12;83736.91;5001561;28;20199;-48
2023/07/21 01:18:21;;;;;;;8.90;4.32;;;;;;;-144.30;49.04;83665.38;5000017;28;20897;-49
2023/07/21 01:20:49;;;;;;;5.82;4.28;;;;;;;-144.30;48.86;83681.28;5001784;28;20281;-48
2023/07/21 01:23:26;;;;;;;7.72;4.40;;;;;;;-144.30;49.21;83726.97;4999799;28;20195;-49
2023/07/21 01:25:55;;;;;;;6.82;4.03;;;;;;;-144.30;49.41;83750.81;5001720;28;20203;-49
2023/07/21 01:28:24;;;;;;;9.90;4.57;;;;;;;-144.30;49.51;83752.78;5001172;28;20190;-49
2023/07/21 01:30:53;;;;;;;6.57;4.40;;;;;;;-144.30;49.73;83724.97;5001212;28;20197;-49
2023/07/21 01:33:22;;;;;;;6.70;4.85;;;;;;;-144.30;49.81;83760.75;4999989;28;20277;-50
2023/07/21 01:35:50;;;;;;;16.23;8.55;;;;;;;-144.30;49.87;83738.88;4999391;28;20209;-49
2023/07/21 01:38:19;;;;;;;7.60;4.47;;;;;;;-144.30;50.30;83723.00;5000983;28;20247;-49
2023/07/21 01:40:47;;;;;;;6.15;5.20;;;;;;;-144.30;50.41;83766.72;5000615;28;20196;-49
2023/07/21 01:43:16;;;;;;;6.20;4.95;;;;;;;-144.30;50.55;83778.63;4991467;28;20205;-50
2023/07/21 01:45:42;;;;;;;10.00;4.30;;;;;;;-144.30;50.63;83780.63;4999979;28;20198;-49
2023/07/21 01:48:09;;;;;;;5.03;3.55;;;;;;;-144.30;50.58;83808.44;5001343;28;20198;-50
2023/07/21 01:50:39;;;;;;;10.77;4.30;;;;;;;-144.30;50.89;83770.69;4999177;28;20194;-51
2023/07/21 01:53:09;;;;;;;5.50;4.55;;;;;;;-144.30;51.33;83776.66;4999572;28;20621;-52
2023/07/21 01:55:41;;;;;;;10.73;4.90;;;;;;;-144.30;51.96;83852.16;4999125;28;20201;-51
2023/07/21 01:58:09;;;;;;;9.43;4.20;;;;;;;-144.30;52.27;83862.09;4998981;28;20600;-51
2023/07/21 02:00:44;;;;;;;4.63;4.07;;;;;;;-144.30;52.56;83832.28;4998618;28;20195;-51
2023/07/21 02:03:11;;;;;;;5.65;4.43;;;;;;;-144.30;52.44;83786.56;5004213;28;20268;-51
2023/07/21 02:05:38;;;;;;;5.90;4.78;;;;;;;-144.30;52.68;83810.41;5019954;28;20665;-51
2023/07/21 02:08:05;;;;;;;8.75;5.22;;;;;;;-144.30;52.78;83885.94;5019766;28;20204;-52
2023/07/21 02:10:32;;;;;;;7.03;4.50;;;;;;;-144.30;52.96;83874.00;5018124;28;20740;-52
2023/07/21 02:12:59;;;;;;;8.57;4.68;;;;;;;-144.30;52.80;83834.25;5019678;28;20220;-53
2023/07/21 02:15:26;;;;;;;6.63;4.85;;;;;;;-144.30;52.88;83854.13;5020222;28;20194;-49
2023/07/21 02:17:55;;;;;;;5.80;4.72;;;;;;;-144.30;53.03;83840.22;5018389;28;20608;-52
2023/07/21 02:20:22;;;;;;;6.35;4.60;;;;;;;-144.30;53.70;83879.97;5019797;28;20679;-50
2023/07/21 02:22:49;;;;;;;5.20;4.72;;;;;;;-144.30;53.56;83854.13;5019973;28;20212;-50
2023/07/21 02:25:15;;;;;;;6.45;4.38;;;;;;;-144.30;53.40;83830.28;5018109;28;20197;-50
2023/07/21 02:27:43;;;;;;;7.78;4.72;;;;;;;-144.30;53.35;83889.91;5023681;28;20280;-50
2023/07/21 02:30:11;;;;;;;8.43;5.00;;;;;;;-144.30;53.17;83852.16;5023393;28;20280;-48
2023/07/21 02:32:38;;;;;;;8.35;5.40;;;;;;;-144.30;53.14;83866.06;5018809;28;20308;-52
2023/07/21 02:35:08;;;;;;;7.97;4.93;;;;;;;-144.30;53.26;83876.00;5020655;28;20203;-48
2023/07/21 02:37:35;;;;;;;6.65;4.63;;;;;;;-144.30;53.14;83866.06;5019993;28;20197;-49
2023/07/21 02:40:06;;;;;;;9.70;4.70;;;;;;;-144.30;52.97;83862.09;5018750;28;20203;-48
2023/07/21 02:42:34;;;;;;;5.47;5.03;;;;;;;-144.30;52.92;83848.19;5020046;28;20281;-51
2023/07/21 02:45:01;;;;;;;5.70;5.00;;;;;;;-144.30;52.92;83872.03;5019103;28;20260;-48
2023/07/21 02:47:28;;;;;;;5.25;4.68;;;;;;;-144.30;52.75;83840.22;5019910;28;20201;-50
2023/07/21 02:49:55;;;;;;;6.38;4.78;;;;;;;-144.30;52.73;83889.91;5017459;28;20281;-49
2023/07/21 02:52:25;;;;;;;5.53;5.03;;;;;;;-144.30;52.77;83856.13;5018322;28;20209;-51
2023/07/21 02:54:52;;;;;;;5.60;4.60;;;;;;;-144.30;52.68;83856.13;5019763;28;20334;-50
2023/07/21 02:57:19;;;;;;;6.45;5.03;;;;;;;-144.30;53.13;83923.69;5017915;28;20240;-49
2023/07/21 02:59:47;;;;;;;5.60;5.07;;;;;;;-144.30;53.17;83874.00;5018025;28;20197;-51
2023/07/21 03:02:14;;;;;;;7.65;4.68;;;;;;;-144.30;52.89;83858.09;5019360;28;20271;-51
2023/07/21 03:04:42;;;;;;;6.10;4.85;;;;;;;-144.30;52.95;83889.91;5007774;28;20229;-52
2023/07/21 03:07:11;;;;;;;9.30;5.45;;;;;;;-144.30;52.98;83830.28;5005870;28;20268;-50
2023/07/21 03:09:39;;;;;;;9.05;4.72;;;;;;;-144.30;53.15;83909.78;5009057;28;20203;-51
2023/07/21 03:12:07;;;;;;;6.60;5.28;;;;;;;-144.30;53.36;83877.97;5009781;28;20222;-50
2023/07/21 03:14:34;;;;;;;5.95;5.35;;;;;;;-144.30;52.99;83868.03;5013321;28;20599;-50
2023/07/21 03:17:01;;;;;;;8.80;5.60;;;;;;;-144.30;53.33;83925.66;5013417;28;20700;-52
2023/07/21 03:19:30;;;;;;;7.93;5.45;;;;;;;-144.30;53.52;83854.13;5013266;28;20194;-51
2023/07/21 03:21:57;;;;;;;6.05;5.32;;;;;;;-144.30;53.72;83665.38;5013095;28;20198;-51
2023/07/21 03:24:24;;;;;;;7.03;6.28;;;;;;;-144.30;53.98;83903.81;5013253;28;20205;-52
2023/07/21 03:26:53;;;;;;;7.18;5.13;;;;;;;-144.30;53.68;83885.94;5012881;28;20585;-48
2023/07/21 03:29:20;;;;;;;8.00;5.13;;;;;;;-144.30;53.77;83901.81;5013023;28;20224;-47
2023/07/21 03:31:46;;;;;;;10.60;5.50;;;;;;;-144.30;53.84;83874.00;5012668;28;20202;-47
2023/07/21 03:34:14;;;;;;;8.07;4.88;;;;;;;-144.30;53.60;83887.91;5012233;28;20202;-47
2023/07/21 03:36:41;;;;;;;8.70;4.97;;;;;;;-144.30;53.41;83818.38;5011872;28;20198;-47
2023/07/21 03:39:08;;;;;;;7.43;4.95;;;;;;;-144.30;53.50;83844.19;5012450;28;20210;-50
2023/07/21 03:41:35;;;;;;;12.25;5.38;;;;;;;-144.30;53.25;83832.28;5012539;28;20214;-47
2023/07/21 03:44:04;;;;;;;9.15;4.40;;;;;;;-144.30;52.96;83814.41;5012739;28;20690;-51
2023/07/21 03:46:31;;;;;;;10.48;5.82;;;;;;;-144.30;52.82;83830.28;5012668;28;20234;-52
2023/07/21 03:48:58;;;;;;;6.07;4.68;;;;;;;-144.30;52.86;83834.25;5012321;28;20198;-51
2023/07/21 03:51:27;;;;;;;12.18;5.47;;;;;;;-144.30;52.92;83786.56;5011663;28;20229;-48
2023/07/21 03:53:58;;;;;;;8.02;5.15;;;;;;;-144.30;52.83;83814.41;5012500;28;20316;-47
2023/07/21 03:56:25;;;;;;;11.82;5.32;;;;;;;-144.30;52.64;83812.41;5010004;28;20265;-53
2023/07/21 03:58:53;;;;;;;10.38;5.32;;;;;;;-144.30;52.73;83806.44;5010473;28;20612;-49
2023/07/21 04:01:21;;;;;;;14.80;6.10;;;;;;;-144.30;50.83;83631.59;5012358;28;20252;-51
2023/07/21 04:03:48;;;;;;;11.52;5.05;;;;;;;-144.30;48.06;83482.56;5022963;28;20599;-52
2023/07/21 04:06:17;;;;;;;6.22;5.22;;;;;;;-144.30;45.04;83273.97;5023809;28;20245;-52
2023/07/21 04:08:44;;;;;;;6.22;4.97;;;;;;;-144.30;42.70;83067.34;5019132;28;20249;-51
2023/07/21 04:11:11;;;;;;;6.78;5.22;;;;;;;-144.30;40.52;82846.84;5018843;28;20198;-48
2023/07/21 04:13:38;;;;;;;14.98;5.90;;;;;;;-144.30;39.05;82644.22;5015291;28;20214;-51
2023/07/21 04:16:05;;;;;;;11.00;5.20;;;;;;;-144.30;37.68;82495.25;5020610;28;20198;-51
2023/07/21 04:18:36;;;;;;;11.50;5.57;;;;;;;-144.30;36.77;82342.31;5021522;28;20190;-48
2023/07/21 04:21:02;;;;;;;10.82;5.32;;;;;;;-144.30;36.52;82328.41;5022494;28;20197;-48
2023/07/21 04:23:29;;;;;;;8.63;5.47;;;;;;;-144.30;35.54;82098.03;5020456;28;20200;-52
2023/07/21 04:25:56;;;;;;;12.85;5.82;;;;;;;-144.30;34.13;81885.53;5019919;28;20559;-50
2023/07/21 04:28:23;;;;;;;10.82;6.20;;;;;;;-144.30;32.96;81629.34;5022111;28;20202;-49
2023/07/21 04:30:53;;;;;;;18.10;6.88;;;;;;;-144.30;32.05;81454.63;5021954;28;20189;-48
2023/07/21 04:33:20;;;;;;;15.75;6.40;;;;;;;-144.30;31.73;81349.38;5021397;28;20222;-52
2023/07/21 04:35:48;;;;;;;12.90;5.53;;;;;;;-144.30;31.18;81172.66;5019983;28;20709;-51
2023/07/21 04:38:15;;;;;;;9.80;6.55;;;;;;;-144.30;30.33;81025.72;5021311;28;20208;-47
2023/07/21 04:40:44;;;;;;;9.00;5.47;;;;;;;-144.30;30.19;80999.94;5021536;28;20288;-52
2023/07/21 04:43:11;;;;;;;8.02;5.38;;;;;;;-144.30;30.26;81031.69;5020260;28;20665;-49
2023/07/21 04:45:41;;;;;;;10.68;5.15;;;;;;;-144.30;30.15;80952.28;5015684;28;20201;-51
2023/07/21 04:48:08;;;;;;;11.30;4.70;;;;;;;-144.30;29.51;80755.72;5011550;28;20193;-48
2023/07/21 04:50:35;;;;;;;9.13;5.25;;;;;;;-144.30;28.92;80590.97;5011699;28;20205;-52
2023/07/21 04:53:04;;;;;;;4.80;4.20;;;;;;;-144.30;28.80;80620.72;5011204;28;20229;-52
2023/07/21 04:55:31;;;;;;;12.88;5.25;;;;;;;-144.30;28.95;80636.63;5011419;28;20211;-48
2023/07/21 04:57:58;;;;;;;10.55;5.50;;;;;;;-144.30;28.55;80519.50;5011277;28;20197;-48
2023/07/21 05:00:27;;;;;;;10.02;5.30;;;;;;;-144.30;28.26;80366.63;5011252;28;20201;-51
2023/07/21 05:02:54;;;;;;;9.25;5.47;;;;;;;-144.30;27.51;80132.41;5007628;28;20225;-48
2023/07/21 05:05:21;;;;;;;11.95;5.22;;;;;;;-144.30;27.54;80027.22;4991646;28;20297;-51
2023/07/21 05:07:48;;;;;;;13.20;5.25;;;;;;;-144.30;27.30;80152.25;4991631;28;20264;-49
2023/07/21 05:10:17;;;;;;;9.45;5.05;;;;;;;-144.30;27.23;80076.84;4991615;28;20208;-49
2023/07/21 05:12:44;;;;;;;15.30;4.97;;;;;;;-144.30;26.94;80078.81;4991251;28;20217;-50
2023/07/21 05:15:12;;;;;;;8.60;4.70;;;;;;;-144.30;27.71;80176.09;4991460;28;20209;-49
2023/07/21 05:17:39;;;;;;;8.25;5.18;;;;;;;-144.30;27.55;80092.72;4991740;28;20326;-49
2023/07/21 05:20:08;;;;;;;10.10;5.20;;;;;;;-144.30;27.47;79977.59;4991505;28;20206;-48
2023/07/21 05:22:34;;;;;;;8.93;5.28;;;;;;;-144.30;27.05;79838.66;4991471;28;20205;-49
2023/07/21 05:25:03;;;;;;;7.22;5.18;;;;;;;-144.30;26.67;79759.28;4991384;28;20198;-50
2023/07/21 05:27:32;;;;;;;7.97;5.20;;;;;;;-144.30;26.77;79793.00;5009441;28;20241;-49
2023/07/21 05:29:59;;;;;;;15.77;5.57;;;;;;;-144.30;26.38;79501.28;5010818;28;20603;-52
2023/07/21 05:32:26;;;;;;;9.52;4.75;;;;;;;-144.30;26.37;79548.91;5010653;28;20208;-50
2023/07/21 05:34:53;;;;;;;9.10;5.75;;;;;;;-144.30;26.14;79523.09;5010490;28;20219;-49
2023/07/21 05:37:20;;;;;;;9.05;4.90;;;;;;;-144.30;26.37;79652.09;5010586;28;20288;-52
2023/07/21 05:39:47;;;;;;;10.43;5.53;;;;;;;-144.30;26.41;79441.75;5010553;28;20206;-53
2023/07/21 05:42:14;;;;;;;9.85;6.15;;;;;;;-144.30;26.04;79342.50;5010321;28;20204;-51
2023/07/21 05:44:45;;;;;;;11.75;5.03;;;;;;;-144.30;26.12;79358.38;5010416;28;20206;-51
2023/07/21 05:47:12;;;;;;;14.10;6.00;;;;;;;-144.30;25.82;79271.06;5010366;28;20745;-48
2023/07/21 05:49:39;;;;;;;22.60;6.57;;;;;;;-144.30;26.09;79275.03;5008401;28;20592;-49
2023/07/21 05:52:07;;;;;;;12.77;5.47;;;;;;;-144.30;26.40;79483.41;5007451;28;20199;-50
2023/07/21 05:54:33;;;;;;;8.35;4.97;;;;;;;-144.30;26.61;79572.72;5008486;28;20209;-49
2023/07/21 05:57:00;;;;;;;7.85;5.00;;;;;;;-144.30;26.48;79715.59;5008203;28;20786;-49
2023/07/21 05:59:27;;;;;;;12.98;5.38;;;;;;;-144.30;26.72;79743.41;5007997;28;20644;-51
2023/07/21 06:01:58;;;;;;;8.55;5.50;;;;;;;-144.30;26.53;79689.81;5007767;28;20694;-48
2023/07/21 06:04:25;;;;;;;16.15;5.53;;;;;;;-144.30;26.70;79791.03;5012288;28;20223;-48
2023/07/21 06:06:53;;;;;;;10.40;4.90;;;;;;;-144.30;26.94;79727.50;5010213;28;20610;-47
2023/07/21 06:09:20;;;;;;;10.23;5.90;;;;;;;-144.30;27.47;80184.03;5010275;28;20197;-49
2023/07/21 06:11:47;;;;;;;7.57;5.07;;;;;;;-144.30;27.35;80239.59;5009818;28;20205;-48
2023/07/21 06:14:14;;;;;;;5.38;4.65;;;;;;;-144.30;27.69;80235.63;5009613;28;20224;-50
2023/07/21 06:16:41;;;;;;;8.40;5.43;;;;;;;-144.30;27.22;80094.69;5009805;28;20289;-49
2023/07/21 06:19:09;;;;;;;10.18;4.43;;;;;;;-144.30;27.35;80132.41;5009798;28;20205;-48
2023/07/21 06:21:37;;;;;;;5.53;5.07;;;;;;;-144.30;27.34;80299.16;5026998;28;20196;-49
2023/07/21 06:24:04;;;;;;;10.07;5.22;;;;;;;-144.30;28.03;80301.13;5029463;28;20732;-49
2023/07/21 06:26:32;;;;;;;9.45;5.30;;;;;;;-144.30;27.50;80172.09;5029201;28;20211;-48
2023/07/21 06:28:59;;;;;;;8.73;5.13;;;;;;;-144.30;27.45;80233.66;5027715;28;20208;-48
2023/07/21 06:31:26;;;;;;;11.20;5.88;;;;;;;-144.30;27.70;80231.66;5014570;28;20201;-50
2023/07/21 06:33:53;;;;;;;7.28;4.45;;;;;;;-144.30;27.91;80469.88;5009549;28;20217;-49
2023/07/21 06:36:21;;;;;;;6.68;4.68;;;;;;;-144.30;29.24;80864.91;5009981;28;20239;-53
2023/07/21 06:38:48;;;;;;;6.47;5.55;;;;;;;-144.30;29.38;80990.00;5009614;28;20197;-50
2023/07/21 06:41:15;;;;;;;4.97;4.50;;;;;;;-144.30;29.17;80803.38;5010170;28;20209;-50
2023/07/21 06:43:42;;;;;;;9.30;5.32;;;;;;;-144.30;28.60;80573.09;5010302;28;20202;-50
2023/07/21 06:46:09;;;;;;;6.60;4.90;;;;;;;-144.30;28.16;80465.91;5022089;28;20209;-51
2023/07/21 06:48:35;;;;;;;11.23;4.78;;;;;;;-144.30;28.00;80473.84;5028883;28;20196;-53
2023/07/21 06:51:02;;;;;;;13.95;4.82;;;;;;;-144.30;28.31;80477.81;5029280;28;20580;-53
2023/07/21 06:53:31;;;;;;;6.45;4.28;;;;;;;-144.30;28.03;80477.81;5028875;28;20231;-53
2023/07/21 06:55:57;;;;;;;12.65;5.70;;;;;;;-144.30;27.97;80473.84;5028596;28;20201;-53
2023/07/21 06:58:24;;;;;;;21.10;5.28;;;;;;;-144.30;28.15;80525.44;5029293;28;20201;-53
2023/07/21 07:00:52;;;;;;;6.78;4.78;;;;;;;-144.30;28.20;80497.66;5028905;28;20657;-52
2023/07/21 07:03:19;;;;;;;5.75;5.13;;;;;;;-144.30;28.25;80527.44;5028699;28;20229;-52
2023/07/21 07:05:47;;;;;;;8.27;5.55;;;;;;;-144.30;28.09;80497.66;5028647;28;20219;-53
2023/07/21 07:08:15;;;;;;;14.32;5.22;;;;;;;-144.30;28.15;80543.31;5028978;28;20622;-51
2023/07/21 07:10:47;;;;;;;9.60;5.30;;;;;;;-144.30;28.36;80698.16;5028600;28;20193;-53
2023/07/21 07:13:14;;;;;;;5.70;5.18;;;;;;;-144.30;28.90;80737.88;5028871;28;20230;-53
2023/07/21 07:15:41;;;;;;;8.45;5.43;;;;;;;-144.30;28.68;80696.16;5028566;28;20193;-51
2023/07/21 07:18:10;;;;;;;11.90;5.05;;;;;;;-144.30;28.87;80789.47;5028737;28;20672;-50
2023/07/21 07:20:36;;;;;;;10.05;5.22;;;;;;;-144.30;28.86;80704.13;5028633;28;20675;-51
2023/07/21 07:23:03;;;;;;;6.60;4.88;;;;;;;-144.30;28.73;80745.81;5028855;28;20569;-51
2023/07/21 07:25:30;;;;;;;11.95;5.18;;;;;;;-144.30;28.45;80612.78;5028746;28;20216;-50
2023/07/21 07:27:59;;;;;;;7.95;5.03;;;;;;;-144.30;28.46;80632.66;5028316;28;20199;-51
2023/07/21 07:30:26;;;;;;;9.77;5.00;;;;;;;-144.30;28.23;80493.69;5028654;28;20556;-51
2023/07/21 07:32:53;;;;;;;7.55;5.47;;;;;;;-144.30;28.34;80585.00;5028661;28;20193;-51
2023/07/21 07:35:21;;;;;;;12.80;5.68;;;;;;;-144.30;28.90;80694.19;5028293;28;20339;-51
2023/07/21 07:37:48;;;;;;;12.05;6.20;;;;;;;-144.30;28.97;80612.78;5028404;28;20673;-50
2023/07/21 07:40:15;;;;;;;17.52;6.10;;;;;;;-144.30;28.86;80602.88;5028829;28;20253;-50
2023/07/21 07:42:41;;;;;;;7.13;5.25;;;;;;;-144.30;28.93;80718.00;5028443;28;20203;-52
2023/07/21 07:45:10;;;;;;;12.98;5.90;;;;;;;-144.30;29.12;80716.03;5028102;28;20208;-49
2023/07/21 07:47:37;;;;;;;9.05;5.45;;;;;;;-144.30;29.51;80807.34;5028621;28;20197;-52
2023/07/21 07:50:04;;;;;;;11.95;5.38;;;;;;;-144.30;28.94;80700.16;5028500;28;20201;-52
2023/07/21 07:52:31;;;;;;;9.70;5.10;;;;;;;-144.30;29.06;80660.44;5028153;28;20208;-53
2023/07/21 07:54:58;;;;;;;11.68;5.35;;;;;;;-144.30;28.34;80551.25;5028406;28;20228;-49
2023/07/21 07:57:28;;;;;;;10.27;5.32;;;;;;;-144.30;28.08;80495.66;5028632;28;20585;-48
2023/07/21 07:59:55;;;;;;;12.25;5.35;;;;;;;-144.30;28.56;80569.13;5030172;28;20284;-50
2023/07/21 08:02:23;;;;;;;5.68;5.15;;;;;;;-144.30;28.42;80497.66;5031908;28;20200;-51
2023/07/21 08:04:50;;;;;;;11.13;5.15;;;;;;;-144.30;27.77;80299.16;5031641;28;20237;-52
2023/07/21 08:07:18;;;;;;;9.65;4.70;;;;;;;-144.30;26.92;80273.34;5016400;28;20197;-52
2023/07/21 08:09:45;;;;;;;7.75;4.40;;;;;;;-144.30;27.05;80271.34;5012254;28;20208;-52
2023/07/21 08:12:12;;;;;;;5.40;4.60;;;;;;;-144.30;26.73;80152.25;5012327;28;20198;-52
2023/07/21 08:14:39;;;;;;;5.47;4.30;;;;;;;-144.30;26.33;79941.88;5012003;28;20259;-53
2023/07/21 08:17:06;;;;;;;6.25;4.40;;;;;;;-144.30;25.88;79906.13;5012749;28;20194;-54
2023/07/21 08:19:34;;;;;;;5.95;4.00;;;;;;;-144.30;25.59;79975.59;5011801;28;20228;-50
2023/07/21 08:22:06;;;;;;;10.75;4.55;;;;;;;-144.30;26.38;80207.84;5025557;28;20207;-50
2023/07/21 08:24:33;;;;;;;6.05;4.60;;;;;;;-144.30;26.21;80057.00;5031835;28;20196;-50
2023/07/21 08:27:02;;;;;;;11.43;4.57;;;;;;;-144.30;25.72;79965.69;5031978;28;20287;-50
2023/07/21 08:29:29;;;;;;;6.13;4.68;;;;;;;-144.30;25.29;80005.38;5031529;28;20204;-50
2023/07/21 08:31:56;;;;;;;4.15;3.85;;;;;;;-144.30;25.53;80136.38;5031357;28;20292;-50
2023/07/21 08:34:23;;;;;;;5.82;4.18;;;;;;;-144.30;26.12;80279.28;5031436;28;20308;-50
2023/07/21 08:36:51;;;;;;;5.55;4.50;;;;;;;-144.30;26.15;80281.28;5031229;28;20204;-52
2023/07/21 08:39:18;;;;;;;6.75;4.25;;;;;;;-144.30;26.34;80463.91;5031729;28;20755;-52
2023/07/21 08:41:47;;;;;;;7.15;3.75;;;;;;;-144.30;26.60;80622.72;5031417;28;20231;-53
2023/07/21 08:44:16;;;;;;;4.20;3.72;;;;;;;-144.30;26.78;80723.97;5031378;28;20204;-52
2023/07/21 08:46:43;;;;;;;5.68;4.35;;;;;;;-144.30;27.05;80779.56;5031308;28;20235;-50
2023/07/21 08:49:10;;;;;;;12.70;4.72;;;;;;;-144.30;27.21;80892.72;5030995;28;20200;-52
2023/07/21 08:51:38;;;;;;;14.77;4.97;;;;;;;-144.30;27.99;80988.00;5031570;28;20644;-53
2023/07/21 08:54:06;;;;;;;7.38;5.20;;;;;;;-144.30;28.17;80974.13;5030872;28;20314;-51
2023/07/21 08:56:33;;;;;;;7.93;4.78;;;;;;;-144.30;28.82;81085.31;5031137;28;20196;-51
2023/07/21 08:59:00;;;;;;;5.55;5.03;;;;;;;-144.30;29.29;81184.56;5030776;28;20205;-49
2023/07/21 09:01:26;;;;;;;10.60;5.13;;;;;;;-144.30;29.63;81393.06;5030885;28;20207;-49
2023/07/21 09:03:53;;;;;;;7.47;4.38;;;;;;;-144.30;30.01;81335.47;5030686;28;20231;-49
2023/07/21 09:06:20;;;;;;;11.25;5.18;;;;;;;-144.30;29.80;81305.69;5031379;28;20665;-52
2023/07/21 09:08:48;;;;;;;10.20;4.93;;;;;;;-144.30;29.42;81236.19;5031150;28;20350;-49
2023/07/21 09:11:16;;;;;;;8.43;4.85;;;;;;;-144.30;29.04;81240.16;5030240;28;20201;-51
2023/07/21 09:13:55;;;;;;;4.72;3.90;;;;;;;-144.30;29.09;81224.28;5030460;28;20617;-50
2023/07/21 09:16:21;;;;;;;9.50;4.40;;;;;;;-144.30;29.04;81210.38;5030823;28;20197;-53
2023/07/21 09:18:51;;;;;;;8.50;4.50;;;;;;;-144.30;28.50;81216.34;5030873;28;20713;-52
2023/07/21 09:21:20;;;;;;;9.30;4.13;;;;;;;-144.30;28.46;81156.78;5030640;28;20196;-50
2023/07/21 09:23:47;;;;;;;8.38;4.60;;;;;;;-144.30;28.83;81240.16;5030634;28;20599;-50
2023/07/21 09:26:21;;;;;;;4.72;4.25;;;;;;;-144.30;28.68;81222.28;5030334;28;20287;-52
2023/07/21 09:28:48;;;;;;;5.38;4.32;;;;;;;-144.30;28.30;81103.16;5030225;28;20201;-52
2023/07/21 09:31:15;;;;;;;4.65;4.22;;;;;;;-144.30;28.49;81240.16;5030435;28;20707;-53
2023/07/21 09:33:43;;;;;;;8.48;4.00;;;;;;;-144.30;28.49;81291.78;5030197;28;20193;-52
2023/07/21 09:36:12;;;;;;;7.05;4.35;;;;;;;-144.30;28.10;81125.00;5030403;28;20200;-52
2023/07/21 09:38:40;;;;;;;8.00;3.97;;;;;;;-144.30;28.08;81277.91;5030117;28;20651;-53
2023/07/21 09:41:09;;;;;;;6.32;4.00;;;;;;;-144.30;28.16;81329.53;5029953;28;20207;-51
2023/07/21 09:43:38;;;;;;;6.38;4.13;;;;;;;-144.30;28.39;81162.72;5030631;28;20672;-51
2023/07/21 09:46:07;;;;;;;4.35;3.92;;;;;;;-144.30;28.21;81311.66;5030342;28;20197;-52
2023/07/21 09:48:34;;;;;;;8.07;4.10;;;;;;;-144.30;28.13;81242.16;5030185;28;20223;-49
2023/07/21 09:51:03;;;;;;;4.35;4.00;;;;;;;-144.30;28.12;81200.47;5029789;28;20291;-50
2023/07/21 09:53:33;;;;;;;4.70;4.30;;;;;;;-144.30;27.93;81256.06;5029974;28;20211;-52
2023/07/21 09:56:01;;;;;;;10.23;3.92;;;;;;;-144.30;27.88;81331.50;5029769;28;20228;-52
2023/07/21 09:58:30;;;;;;;8.85;4.13;;;;;;;-144.30;28.38;81289.81;5029899;28;20200;-53
2023/07/21 10:01:02;;;;;;;7.10;4.32;;;;;;;-144.30;28.26;81319.59;5029800;28;20201;-53
2023/07/21 10:03:31;;;;;;;4.18;3.83;;;;;;;-144.30;28.57;81331.50;5029865;28;20241;-52
2023/07/21 10:06:00;;;;;;;5.03;3.88;;;;;;;-144.30;28.42;81383.13;5029608;28;20204;-52
2023/07/21 10:08:28;;;;;;;4.70;3.85;;;;;;;-144.30;28.15;81267.97;5029590;28;20203;-52
2023/07/21 10:10:58;;;;;;;5.10;4.57;;;;;;;-144.30;27.86;81138.91;5029562;28;20200;-52
2023/07/21 10:13:25;;;;;;;4.53;4.13;;;;;;;-144.30;28.26;81176.63;5029619;28;20197;-50
2023/07/21 10:15:53;;;;;;;10.00;4.35;;;;;;;-144.30;28.50;81192.50;5030225;28;20221;-50
2023/07/21 10:18:21;;;;;;;4.45;4.05;;;;;;;-144.30;28.00;81210.38;5029669;28;20296;-49
2023/07/21 10:20:50;;;;;;;4.47;4.07;;;;;;;-144.30;28.19;81152.81;5029512;28;20206;-53
2023/07/21 10:23:19;;;;;;;6.07;3.88;;;;;;;-144.30;28.11;81287.81;5028491;28;20208;-49
2023/07/21 10:25:56;;;;;;;8.00;4.47;;;;;;;-144.30;28.20;81343.41;5029322;28;20211;-49
2023/07/21 10:28:24;;;;;;;7.22;4.40;;;;;;;-144.30;28.88;81456.59;5029482;28;20640;-48
2023/07/21 10:30:52;;;;;;;5.22;3.67;;;;;;;-144.30;29.03;81393.06;5029176;28;20259;-55
2023/07/21 10:33:20;;;;;;;5.60;3.92;;;;;;;-144.30;29.12;81490.34;5029196;28;20289;-53
2023/07/21 10:35:49;;;;;;;8.18;4.15;;;;;;;-144.30;29.02;81569.78;5029080;28;20224;-54
2023/07/21 10:38:22;;;;;;;8.73;4.78;;;;;;;-144.30;29.23;81573.75;5029292;28;20201;-49
2023/07/21 10:40:49;;;;;;;6.32;4.38;;;;;;;-144.30;29.26;81756.44;5029587;28;20291;-54
2023/07/21 10:43:16;;;;;;;8.07;3.85;;;;;;;-144.30;29.30;81681.00;5028834;28;20197;-54
2023/07/21 10:45:43;;;;;;;5.30;4.00;;;;;;;-144.30;29.16;81657.16;5029142;28;20206;-54
2023/07/21 10:48:11;;;;;;;5.50;4.13;;;;;;;-144.30;29.29;81649.22;5029594;28;20592;-54
2023/07/21 10:50:41;;;;;;;11.38;4.75;;;;;;;-144.30;29.35;81679.00;5029052;28;20204;-48
2023/07/21 10:53:09;;;;;;;6.38;4.30;;;;;;;-144.30;29.37;81651.19;5028978;28;20198;-50
2023/07/21 10:55:37;;;;;;;8.15;4.28;;;;;;;-144.30;29.29;81675.03;5028816;28;20213;-54
2023/07/21 10:58:05;;;;;;;4.82;4.18;;;;;;;-144.30;29.34;81778.28;5028917;28;20210;-50
2023/07/21 11:00:44;;;;;;;7.05;4.00;;;;;;;-144.30;29.65;81720.69;5029000;28;20204;-54
2023/07/21 11:03:11;;;;;;;7.70;4.00;;;;;;;-144.30;29.43;81673.03;5028664;28;20934;-50
2023/07/21 11:05:38;;;;;;;4.95;4.30;;;;;;;-144.30;29.39;81671.06;5029031;28;20193;-50
2023/07/21 11:08:05;;;;;;;4.70;4.35;;;;;;;-144.30;29.19;81694.88;5028665;28;20255;-50
2023/07/21 11:10:34;;;;;;;9.60;4.60;;;;;;;-144.30;29.24;81684.97;5028782;28;20193;-51
2023/07/21 11:13:02;;;;;;;5.80;3.67;;;;;;;-144.30;29.20;81742.53;5028878;28;20201;-52
2023/07/21 11:15:29;;;;;;;5.05;4.25;;;;;;;-144.30;29.14;81774.31;5028779;28;20235;-49
2023/07/21 11:18:01;;;;;;;5.45;4.10;;;;;;;-144.30;29.31;81764.38;5029423;28;20198;-53